Time;durP1;ratioP1;P1;durP2;ratioP2;P2;SDS_P1;SDS_P2;PMS_P1;PMS_P2;Temp;Humidity;BMP_temperature;BMP_pressure;BME280_temperature;BME280_humidity;BME280_pressure;Samples;Min_cycle;Max_cycle;Signal;HPM_P1;HPM_P2
2023/08/19 00:00:16;;;;;;;24.40;22.60;;;;;;;20.14;74.81;100679.76;108933;1278;23005;-77
2023/08/19 00:03:50;;;;;;;26.50;24.10;;;;;;;20.11;74.82;100675.91;108986;1276;21980;-79
2023/08/19 00:07:37;;;;;;;24.50;22.70;;;;;;;20.09;75.05;100676.41;109161;1278;24287;-78
2023/08/19 00:10:51;;;;;;;25.70;23.50;;;;;;;20.06;74.94;100674.64;108886;1275;21966;-77
2023/08/19 00:14:42;;;;;;;25.50;23.30;;;;;;;20.04;75.03;100670.90;109256;1271;23599;-79
2023/08/19 00:18:36;;;;;;;24.50;22.50;;;;;;;20.05;75.43;100666.11;108840;1282;22013;-77
2023/08/19 00:22:06;;;;;;;27.10;25.00;;;;;;;20.08;75.34;100663.23;108337;1282;22007;-78
2023/08/19 00:24:57;;;;;;;24.00;22.20;;;;;;;20.05;75.39;100663.81;108486;1285;22795;-79
2023/08/19 00:27:44;;;;;;;25.80;23.60;;;;;;;20.05;75.38;100660.92;108275;1285;22011;-78
2023/08/19 00:30:14;;;;;;;25.20;23.00;;;;;;;20.09;75.47;100664.92;108336;1285;22160;-78
2023/08/19 00:33:16;;;;;;;;;;;;;;;;;;;;;
2023/08/19 00:36:07;;;;;;;24.60;22.60;;;;;;;20.13;75.79;100657.77;108645;1277;24326;-79
2023/08/19 00:39:25;;;;;;;25.90;23.70;;;;;;;20.13;75.82;100655.42;108949;1277;24474;-79
2023/08/19 00:42:14;;;;;;;25.20;23.20;;;;;;;20.15;75.75;100653.00;108944;1277;21998;-80
2023/08/19 00:45:25;;;;;;;26.10;23.80;;;;;;;20.12;75.72;100650.55;108965;1276;21973;-78
2023/08/19 00:48:09;;;;;;;26.90;24.40;;;;;;;20.06;75.62;100649.73;108987;1277;22610;-77
2023/08/19 00:51:06;;;;;;;25.50;23.30;;;;;;;20.01;75.73;100649.55;108972;1277;23003;-78
2023/08/19 00:54:23;;;;;;;26.20;24.20;;;;;;;19.96;75.82;100651.16;109226;1257;22007;-78
2023/08/19 00:57:41;;;;;;;28.20;26.10;;;;;;;19.92;76.09;100648.47;109830;1269;21959;-77
2023/08/19 01:00:59;;;;;;;27.90;25.50;;;;;;;19.93;76.37;100645.23;109864;1261;21977;-79
2023/08/19 01:04:52;;;;;;;26.80;24.60;;;;;;;19.94;76.54;100637.38;109920;1268;21973;-78
2023/08/19 01:08:29;;;;;;;26.70;24.70;;;;;;;19.98;76.62;100637.97;109502;1269;23851;-81
2023/08/19 01:12:22;;;;;;;;;;;;;;;;;;;;;
2023/08/19 01:16:20;;;;;;;26.50;24.40;;;;;;;20.02;76.33;100635.52;109360;1276;21988;-80
2023/08/19 01:19:51;;;;;;;27.70;25.40;;;;;;;20.03;76.37;100644.70;109323;1274;22044;-78
2023/08/19 01:23:13;;;;;;;26.40;24.20;;;;;;;20.04;76.36;100650.05;109010;1274;23709;-79
2023/08/19 01:26:47;;;;;;;28.90;26.60;;;;;;;19.96;76.36;100649.97;108662;1281;21999;-79
2023/08/19 01:30:39;;;;;;;27.00;24.80;;;;;;;19.97;76.47;100655.74;108757;1281;21989;-80
2023/08/19 01:34:07;;;;;;;27.20;24.90;;;;;;;19.97;76.56;100650.98;108500;1286;22456;-79
2023/08/19 01:38:07;;;;;;;27.90;25.60;;;;;;;19.99;76.49;100646.04;108398;1286;21836;-78
2023/08/19 01:41:07;;;;;;;27.50;25.30;;;;;;;19.98;76.47;100648.42;108410;1288;22007;-79
2023/08/19 01:44:00;;;;;;;;;;;;;;;;;;;;;
2023/08/19 01:47:28;;;;;;;29.80;27.20;;;;;;;20.01;76.64;100653.08;108587;1284;22648;-78
2023/08/19 01:50:50;;;;;;;30.70;28.20;;;;;;;20.04;76.69;100652.88;108783;1278;22016;-79
2023/08/19 01:54:17;;;;;;;30.80;27.80;;;;;;;20.03;76.50;100651.54;108942;1279;22000;-79
2023/08/19 01:57:31;;;;;;;27.20;24.90;;;;;;;20.04;76.77;100649.33;108758;1284;22164;-80
2023/08/19 02:00:32;;;;;;;27.60;25.30;;;;;;;20.07;76.60;100652.48;108604;1284;22678;-79
2023/08/19 02:04:11;;;;;;;28.00;25.70;;;;;;;20.08;76.55;100652.08;108967;1280;23615;-78
2023/08/19 02:07:27;;;;;;;27.40;24.90;;;;;;;20.08;76.59;100650.11;108540;1283;23643;-78
2023/08/19 02:11:03;;;;;;;26.80;24.30;;;;;;;20.10;76.52;100649.84;108688;1277;23721;-79
2023/08/19 02:14:30;;;;;;;29.10;26.70;;;;;;;20.09;76.38;100650.73;109132;1277;21985;-80
2023/08/19 02:22:09;;;;;;;26.80;24.70;;;;;;;19.95;76.38;100634.08;109058;1280;22003;-78
2023/08/19 02:29:52;;;;;;;27.90;25.80;;;;;;;19.97;76.82;100637.15;108207;1289;23056;-79
2023/08/19 02:33:16;;;;;;;26.20;24.10;;;;;;;19.96;76.87;100632.66;108246;1281;22005;-79
2023/08/19 02:37:09;;;;;;;;;;;;;;;;;;;;;
2023/08/19 02:40:17;;;;;;;29.00;26.20;;;;;;;20.02;76.70;100644.35;108512;1284;21952;-79
2023/08/19 02:43:02;;;;;;;26.80;24.40;;;;;;;20.02;76.70;100647.04;108567;1282;23078;-79
2023/08/19 02:46:10;;;;;;;26.20;24.00;;;;;;;20.02;76.54;100645.45;108612;1278;22006;-78
2023/08/19 02:49:49;;;;;;;26.20;24.00;;;;;;;19.94;76.48;100634.01;108525;1283;23046;-79
2023/08/19 02:52:58;;;;;;;;;;;;;;;;;;;;;
2023/08/19 02:56:11;;;;;;;27.40;25.00;;;;;;;19.96;76.43;100642.02;108757;1278;23743;-80
2023/08/19 02:59:30;;;;;;;;;;;;;;;;;;;;;
2023/08/19 03:06:36;;;;;;;26.80;24.50;;;;;;;19.91;76.53;100646.44;108928;1281;23952;-80
2023/08/19 03:10:13;;;;;;;27.60;25.00;;;;;;;19.85;76.60;100646.89;109104;1274;23797;-79
2023/08/19 03:13:58;;;;;;;;;;;;;;;;;;;;;
2023/08/19 03:17:31;;;;;;;29.20;25.90;;;;;;;19.78;76.81;100633.40;109719;1270;21985;-78
2023/08/19 03:21:10;;;;;;;27.30;25.00;;;;;;;19.79;76.71;100628.36;109198;1271;22051;-80
2023/08/19 03:24:43;;;;;;;28.40;26.20;;;;;;;19.78;76.68;100633.08;109698;1270;23638;-79
2023/08/19 03:27:48;;;;;;;27.00;24.80;;;;;;;19.79;76.70;100635.13;109118;1276;23062;-79
2023/08/19 03:30:38;;;;;;;26.80;24.40;;;;;;;19.80;76.65;100634.67;109006;1276;23656;-77
2023/08/19 03:33:43;;;;;;;25.50;22.90;;;;;;;19.81;76.54;100633.05;108701;1276;23734;-79
2023/08/19 03:38:11;;;;;;;39.10;35.90;;;;;;;19.76;76.69;100628.45;108663;1277;22134;-79
2023/08/19 03:41:32;;;;;;;26.00;23.80;;;;;;;19.63;76.57;100627.25;109017;1277;22048;-79
2023/08/19 03:44:54;;;;;;;26.90;24.80;;;;;;;19.57;76.80;100629.08;108558;1282;21992;-79
2023/08/19 03:48:07;;;;;;;;;;;;;;;;;;;;;
2023/08/19 03:51:34;;;;;;;;;;;;;;;;;;;;;
2023/08/19 03:54:37;;;;;;;27.80;25.10;;;;;;;19.58;76.92;100625.66;108385;1284;22024;-77
2023/08/19 03:57:19;;;;;;;26.00;23.80;;;;;;;19.57;77.13;100627.33;108520;1280;23772;-79
2023/08/19 04:00:47;;;;;;;25.10;23.20;;;;;;;19.58;77.30;100630.73;108279;1286;22282;-78
2023/08/19 04:03:50;;;;;;;26.00;23.80;;;;;;;19.62;77.42;100629.73;108182;1286;23849;-80
2023/08/19 04:07:14;;;;;;;27.60;25.30;;;;;;;19.66;77.42;100634.22;108654;1281;21986;-79
2023/08/19 04:10:38;;;;;;;26.50;24.10;;;;;;;19.71;77.34;100637.42;109016;1279;23150;-79
2023/08/19 04:13:27;;;;;;;26.80;24.40;;;;;;;19.72;77.14;100637.00;108899;1278;22985;-78
2023/08/19 04:16:29;;;;;;;;;;;;;;;;;;;;;
2023/08/19 04:20:04;;;;;;;;;;;;;;;;;;;;;
2023/08/19 04:23:20;;;;;;;27.30;24.90;;;;;;;19.67;76.96;100630.23;109289;1274;22004;-77
2023/08/19 04:26:22;;;;;;;26.50;23.90;;;;;;;19.66;77.22;100629.26;108975;1278;21988;-77
2023/08/19 04:29:54;;;;;;;25.80;23.30;;;;;;;19.73;77.52;100633.39;108837;1280;22008;-79
2023/08/19 04:33:11;;;;;;;32.60;24.20;;;;;;;19.84;77.66;100639.52;108920;1280;21984;-78
2023/08/19 04:37:32;;;;;;;25.30;22.90;;;;;;;19.94;77.75;100643.77;108865;1276;23206;-80
2023/08/19 04:41:37;;;;;;;26.40;23.80;;;;;;;20.02;77.46;100644.75;108488;1286;22011;-79
2023/08/19 04:44:44;;;;;;;;;;;;;;;;;;;;;
2023/08/19 04:48:00;;;;;;;24.60;22.20;;;;;;;20.23;77.34;100641.77;107896;1293;21996;-78
2023/08/19 04:50:58;;;;;;;25.40;22.80;;;;;;;20.35;77.16;100641.80;107757;1293;22025;-77
2023/08/19 04:53:44;;;;;;;25.20;23.00;;;;;;;20.45;76.92;100643.50;107325;1296;24131;-78
2023/08/19 04:57:21;;;;;;;24.40;22.20;;;;;;;20.54;76.56;100647.83;107273;1300;22015;-78
2023/08/19 05:00:15;;;;;;;;;;;;;;;;;;;;;
2023/08/19 05:02:54;;;;;;;23.20;21.40;;;;;;;20.65;76.00;100651.09;107114;1299;23714;-80
2023/08/19 05:06:11;;;;;;;;;;;;;;;;;;;;;
2023/08/19 05:09:19;;;;;;;;;;;;;;;;;;;;;
2023/08/19 05:12:22;;;;;;;20.80;19.20;;;;;;;20.84;75.61;100656.20;107640;1294;23053;-79
2023/08/19 05:22:35;;;;;;;22.20;20.20;;;;;;;21.19;75.20;100661.84;108199;1289;22647;-79
2023/08/19 05:25:52;;;;;;;;;;;;;;;;;;;;;
2023/08/19 05:28:37;;;;;;;23.00;20.90;;;;;;;21.44;73.99;100662.55;108689;1287;21995;-79
2023/08/19 05:31:32;;;;;;;23.20;21.20;;;;;;;21.54;73.89;100666.92;108748;1281;23074;-78
2023/08/19 05:34:13;;;;;;;22.00;20.10;;;;;;;21.65;73.74;100667.29;108825;1281;23052;-79
2023/08/19 05:36:44;;;;;;;21.40;19.70;;;;;;;21.75;73.42;100665.44;108573;1281;22849;-78
2023/08/19 05:39:32;;;;;;;21.50;19.50;;;;;;;21.83;72.87;100664.98;108443;1284;23085;-78
2023/08/19 05:42:38;;;;;;;21.60;19.70;;;;;;;21.89;72.67;100664.82;108303;1284;21997;-77
2023/08/19 05:45:20;;;;;;;21.50;19.50;;;;;;;22.02;72.82;100666.30;108440;1284;23618;-79
2023/08/19 05:48:05;;;;;;;22.30;20.60;;;;;;;22.15;72.20;100663.79;108500;1284;23744;-79
2023/08/19 05:50:47;;;;;;;23.70;21.60;;;;;;;22.28;71.99;100668.84;108512;1284;22032;-77
2023/08/19 05:53:40;;;;;;;22.90;20.70;;;;;;;22.39;71.50;100667.20;108556;1284;22052;-79
2023/08/19 05:56:43;;;;;;;27.10;20.00;;;;;;;22.52;71.30;100666.44;108916;1276;21988;-83
2023/08/19 05:59:27;;;;;;;22.50;20.50;;;;;;;22.77;71.54;100664.58;109410;1270;22738;-80
2023/08/19 06:02:10;;;;;;;21.10;19.10;;;;;;;23.00;71.03;100665.14;109273;1270;21978;-81
2023/08/19 06:04:43;;;;;;;24.10;18.70;;;;;;;23.27;70.63;100667.66;109245;1274;22003;-79
2023/08/19 06:07:28;;;;;;;22.10;20.20;;;;;;;23.56;70.17;100668.63;109424;1274;24441;-81
2023/08/19 06:10:03;;;;;;;20.50;18.50;;;;;;;23.82;68.61;100668.34;109419;1273;24144;-80
2023/08/19 06:12:57;;;;;;;21.40;18.70;;;;;;;24.03;67.54;100671.68;109289;1274;22528;-80
2023/08/19 06:15:31;;;;;;;19.10;17.10;;;;;;;24.33;67.82;100675.34;109413;1272;21988;-81
2023/08/19 06:18:06;;;;;;;18.10;16.40;;;;;;;24.74;67.33;100678.89;109622;1271;21981;-78
2023/08/19 06:20:54;;;;;;;16.80;15.40;;;;;;;25.17;66.15;100680.84;109586;1272;21982;-81
2023/08/19 06:23:33;;;;;;;18.10;16.30;;;;;;;25.52;64.68;100681.83;109963;1267;21989;-83
2023/08/19 06:26:03;;;;;;;17.50;16.10;;;;;;;25.85;63.60;100686.54;109607;1271;21926;-79
2023/08/19 06:28:38;;;;;;;16.70;15.50;;;;;;;26.12;62.39;100687.42;109672;1270;21985;-80
2023/08/19 06:31:14;;;;;;;17.70;15.90;;;;;;;26.39;61.63;100688.13;109471;1274;22105;-81
2023/08/19 06:33:58;;;;;;;15.60;14.20;;;;;;;26.63;60.47;100687.19;109548;1273;23061;-81
2023/08/19 06:36:51;;;;;;;15.20;13.80;;;;;;;26.89;59.89;100693.13;109437;1274;21978;-79
2023/08/19 06:39:26;;;;;;;16.70;14.90;;;;;;;27.18;58.90;100696.80;109107;1274;21993;-81
2023/08/19 06:42:03;;;;;;;15.70;14.30;;;;;;;27.49;58.71;100700.64;109601;1274;22098;-80
2023/08/19 06:44:40;;;;;;;17.20;14.70;;;;;;;27.79;57.65;100699.66;109370;1274;23801;-79
2023/08/19 06:47:14;;;;;;;15.00;13.70;;;;;;;27.98;56.82;100700.02;109007;1279;21991;-81
2023/08/19 06:50:09;;;;;;;13.70;12.50;;;;;;;28.25;56.44;100701.10;109691;1275;21756;-81
2023/08/19 06:54:06;;;;;;;;;;;;;;;;;;;;;
2023/08/19 07:00:46;;;;;;;13.00;11.60;;;;;;;29.07;54.08;100707.75;110793;1258;21886;-80
2023/08/19 07:03:47;;;;;;;13.00;11.60;;;;;;;29.23;52.80;100705.14;110374;1276;21993;-82
2023/08/19 07:07:24;;;;;;;;;;;;;;;;;;;;;
2023/08/19 07:10:53;;;;;;;;;;;;;;;;;;;;;
2023/08/19 07:14:26;;;;;;;10.60;9.50;;;;;;;30.14;51.60;100713.98;110175;1276;21997;-81
2023/08/19 07:18:00;;;;;;;11.10;10.10;;;;;;;30.33;50.02;100713.86;109312;1286;22013;-80
2023/08/19 07:20:37;;;;;;;9.70;8.90;;;;;;;30.45;49.33;100715.13;108433;1286;22004;-81
2023/08/19 07:23:44;;;;;;;9.70;8.70;;;;;;;30.43;48.62;100717.13;108854;1286;22015;-79
2023/08/19 07:26:55;;;;;;;27.70;9.20;;;;;;;30.52;49.22;100715.20;108792;1285;22018;-79
2023/08/19 07:29:35;;;;;;;10.20;8.00;;;;;;;30.79;48.74;100719.98;107961;1296;23009;-81
2023/08/19 07:32:31;;;;;;;;;;;;;;;31.03;48.14;100723.02;106921;1301;21992;-78
2023/08/19 07:38:41;;;;;;;11.00;9.30;;;;;;;31.02;47.35;100728.80;107972;1292;22120;-80
2023/08/19 07:41:34;;;;;;;8.80;8.10;;;;;;;31.15;46.85;100730.45;107612;1297;22013;-78
2023/08/19 07:44:32;;;;;;;;;;;;;;;31.31;46.81;100729.28;107519;1297;22012;-79
2023/08/19 07:47:06;;;;;;;9.20;8.30;;;;;;;31.40;46.72;100731.28;107713;1289;23103;-77
2023/08/19 07:50:07;;;;;;;10.20;9.10;;;;;;;31.54;46.31;100733.13;108344;1285;22222;-77
2023/08/19 07:52:46;;;;;;;14.00;8.60;;;;;;;31.61;45.67;100732.52;108625;1285;22863;-77
2023/08/19 07:55:30;;;;;;;9.40;8.60;;;;;;;31.69;45.22;100733.14;107879;1288;22021;-78
2023/08/19 07:58:15;;;;;;;9.90;7.80;;;;;;;31.73;45.12;100731.98;108119;1290;22257;-78
2023/08/19 08:00:52;;;;;;;9.40;8.60;;;;;;;31.91;44.82;100727.80;108635;1286;21997;-80
2023/08/19 08:03:29;;;;;;;10.90;7.80;;;;;;;32.11;44.60;100723.95;108520;1285;23645;-78
2023/08/19 08:06:15;;;;;;;8.30;7.50;;;;;;;32.31;43.69;100723.79;108609;1279;21984;-78
2023/08/19 08:08:55;;;;;;;10.50;8.10;;;;;;;32.34;43.18;100724.98;108886;1281;22965;-80
2023/08/19 08:12:03;;;;;;;8.40;7.60;;;;;;;32.29;42.86;100726.43;108607;1285;22042;-78
2023/08/19 08:15:03;;;;;;;9.70;8.10;;;;;;;32.19;43.03;100728.48;108872;1279;22117;-77
2023/08/19 08:17:53;;;;;;;10.70;8.00;;;;;;;32.13;42.80;100731.20;108955;1279;21993;-77
2023/08/19 08:20:34;;;;;;;11.90;7.80;;;;;;;32.02;42.66;100723.46;108867;1278;21989;-78
2023/08/19 08:23:38;;;;;;;7.30;6.50;;;;;;;32.06;42.78;100725.92;108856;1279;22009;-80
2023/08/19 08:27:11;;;;;;;8.30;7.20;;;;;;;32.14;42.79;100727.48;108263;1287;22028;-79
2023/08/19 08:30:32;;;;;;;8.20;7.40;;;;;;;32.20;41.87;100730.45;108285;1285;23731;-79
2023/08/19 08:37:50;;;;;;;7.50;6.50;;;;;;;31.82;41.95;100736.08;107782;1296;22002;-78
2023/08/19 08:40:28;;;;;;;9.20;7.10;;;;;;;31.72;42.54;100735.96;107293;1297;22288;-78
2023/08/19 08:43:37;;;;;;;7.30;6.70;;;;;;;31.83;43.07;100739.64;107552;1297;22046;-77
2023/08/19 08:47:17;;;;;;;7.60;6.60;;;;;;;32.13;42.88;100741.92;107594;1297;22187;-78
2023/08/19 08:50:10;;;;;;;;;;;;;;;;;;;;;
2023/08/19 08:53:24;;;;;;;12.40;7.10;;;;;;;32.57;41.76;100742.66;107660;1291;22063;-79
2023/08/19 08:56:51;;;;;;;8.80;6.90;;;;;;;32.74;41.29;100736.79;107413;1295;22069;-78
2023/08/19 08:59:45;;;;;;;8.80;6.20;;;;;;;32.78;40.71;100736.04;107426;1295;22050;-79
2023/08/19 09:02:25;;;;;;;14.60;7.70;;;;;;;32.72;40.95;100733.24;107477;1295;22216;-79
2023/08/19 09:05:25;;;;;;;6.80;6.10;;;;;;;32.71;40.60;100734.27;107935;1290;23072;-80
2023/08/19 09:08:18;;;;;;;;;;;;;;;;;;;;;
2023/08/19 09:11:31;;;;;;;6.80;6.20;;;;;;;32.56;40.41;100722.81;105662;1287;22632;-77
2023/08/19 09:14:58;;;;;;;8.30;6.40;;;;;;;32.56;40.39;100728.05;108750;1280;22779;-78
2023/08/19 09:17:47;;;;;;;6.80;6.00;;;;;;;32.68;41.04;100726.52;108692;1280;22014;-78
2023/08/19 09:20:45;;;;;;;6.90;6.30;;;;;;;32.92;40.89;100725.99;108620;1281;21987;-75
2023/08/19 09:23:39;;;;;;;8.20;7.00;;;;;;;32.94;40.01;100722.33;108798;1277;23076;-78
2023/08/19 09:27:04;;;;;;;7.50;6.30;;;;;;;32.81;39.59;100720.55;109010;1271;21947;-79
2023/08/19 09:30:00;;;;;;;7.20;6.20;;;;;;;32.65;39.71;100724.32;109725;1271;22015;-78
2023/08/19 09:37:25;;;;;;;6.50;5.90;;;;;;;32.65;40.21;100720.05;108947;1278;24388;-80
2023/08/19 09:40:45;;;;;;;6.90;6.30;;;;;;;32.58;40.37;100721.50;109149;1278;23014;-78
2023/08/19 09:44:20;;;;;;;9.10;6.80;;;;;;;32.72;40.38;100724.64;108514;1285;23002;-78
2023/08/19 09:47:07;;;;;;;11.90;6.40;;;;;;;33.00;39.98;100725.15;108120;1289;22002;-80
2023/08/19 09:50:22;;;;;;;10.90;6.60;;;;;;;33.24;39.67;100725.67;107989;1289;22020;-79
2023/08/19 09:53:59;;;;;;;7.00;6.40;;;;;;;33.34;38.87;100720.97;108223;1289;22008;-79
2023/08/19 09:57:09;;;;;;;;;;;;;;;;;;;;;
2023/08/19 10:00:05;;;;;;;5.90;5.20;;;;;;;33.34;37.96;100720.97;107909;1292;22002;-78
2023/08/19 10:03:37;;;;;;;8.00;6.30;;;;;;;33.16;38.12;100719.32;108383;1288;22447;-80
2023/08/19 10:06:34;;;;;;;7.90;6.70;;;;;;;33.22;38.67;100719.15;108807;1284;22011;-78
2023/08/19 10:09:25;;;;;;;13.70;7.30;;;;;;;33.25;38.47;100719.96;108740;1284;22000;-79
2023/08/19 10:12:50;;;;;;;9.40;7.10;;;;;;;33.26;38.52;100714.96;108287;1284;22319;-78
2023/08/19 10:15:33;;;;;;;7.00;6.30;;;;;;;33.20;38.33;100712.39;108799;1278;21993;-78
2023/08/19 10:18:42;;;;;;;7.30;6.80;;;;;;;33.13;38.32;100714.46;108992;1278;21990;-80
2023/08/19 10:21:23;;;;;;;11.10;6.50;;;;;;;32.97;38.63;100715.94;108954;1270;23058;-80
2023/08/19 10:24:14;;;;;;;60.20;10.30;;;;;;;32.99;39.02;100719.83;108661;1279;22097;-79
2023/08/19 10:26:57;;;;;;;66.20;11.00;;;;;;;33.00;38.56;100720.08;108682;1282;21957;-77
2023/08/19 10:30:32;;;;;;;15.40;7.20;;;;;;;32.92;38.44;100715.77;108429;1286;22002;-78
2023/08/19 10:33:53;;;;;;;7.10;6.50;;;;;;;32.75;38.26;100716.67;108244;1283;22198;-78
2023/08/19 10:37:56;;;;;;;10.80;6.30;;;;;;;32.40;39.21;100716.70;108114;1289;23638;-79
2023/08/19 10:41:09;;;;;;;10.00;6.20;;;;;;;32.37;39.46;100716.50;108055;1289;22009;-77
2023/08/19 10:45:25;;;;;;;;;;;;;;;;;;;;;
2023/08/19 10:49:14;;;;;;;7.60;6.60;;;;;;;32.57;38.94;100708.32;108147;1286;22653;-78
2023/08/19 10:52:57;;;;;;;23.30;8.80;;;;;;;32.68;38.88;100710.14;107793;1296;22003;-79
2023/08/19 10:56:35;;;;;;;;;;;;;;;;;;;;;
2023/08/19 11:03:54;;;;;;;4.50;2.50;;;;;;;32.25;39.16;100703.92;106229;1309;22035;-77
2023/08/19 11:06:30;;;;;;;17.60;8.20;;;;;;;32.14;39.47;100700.41;106130;1308;23650;-78
2023/08/19 11:09:09;;;;;;;24.90;8.00;;;;;;;32.15;39.84;100701.61;106298;1304;23779;-78
2023/08/19 11:11:55;;;;;;;30.20;9.30;;;;;;;32.12;39.52;100696.73;106735;1304;22882;-77
2023/08/19 11:15:41;;;;;;;;;;;;;;;;;;;;;
2023/08/19 11:18:39;;;;;;;372.80;60.40;;;;;;;31.95;39.03;100697.55;106348;1309;22241;-79
2023/08/19 11:21:24;;;;;;;34.50;12.60;;;;;;;31.95;39.02;100696.50;106129;1309;22039;-78
2023/08/19 11:24:20;;;;;;;307.60;45.30;;;;;;;31.92;38.83;100692.59;106248;1300;23337;-79
2023/08/19 11:27:44;;;;;;;329.10;48.40;;;;;;;31.84;38.86;100690.44;107124;1301;22013;-80
2023/08/19 11:31:39;;;;;;;;;;;;;;;;;;;;;
2023/08/19 11:33:41;;;;;;;117.10;23.20;;;;;;;31.91;39.28;100692.05;107332;1297;22647;-79
2023/08/19 11:37:25;;;;;;;15.40;7.90;;;;;;;31.92;39.72;100688.79;107885;1293;21877;-78
2023/08/19 11:40:57;;;;;;;10.90;6.80;;;;;;;32.00;39.84;100684.24;108014;1293;22459;-79
2023/08/19 11:43:25;;;;;;;8.40;6.70;;;;;;;32.06;38.99;100683.12;107139;1302;22016;-79
2023/08/19 11:46:32;;;;;;;7.60;6.30;;;;;;;32.05;38.81;100680.19;106901;1302;22409;-79
2023/08/19 11:49:23;;;;;;;14.80;7.10;;;;;;;32.00;39.16;100684.23;107114;1303;22031;-78
2023/08/19 11:52:35;;;;;;;42.80;12.20;;;;;;;32.02;39.51;100682.64;107064;1302;22016;-77
2023/08/19 11:55:57;;;;;;;;;;;;;;;;;;;;;
2023/08/19 11:58:49;;;;;;;;;;;;;;;32.05;39.49;100679.11;106286;1307;22054;-78
2023/08/19 12:02:12;;;;;;;22.80;13.20;;;;;;;32.03;39.34;100677.59;106463;1307;22017;-78
2023/08/19 12:05:12;;;;;;;;;;;;;;;;;;;;;
2023/08/19 12:09:32;;;;;;;22.10;8.60;;;;;;;32.08;39.47;100672.45;106358;1307;23732;-79
2023/08/19 12:12:40;;;;;;;18.40;7.80;;;;;;;32.05;39.00;100677.48;106704;1304;23122;-80
2023/08/19 12:15:44;;;;;;;;;;;;;;;;;;;;;
2023/08/19 12:18:46;;;;;;;7.90;7.20;;;;;;;32.01;39.04;100670.08;107310;1298;22086;-78
2023/08/19 12:22:04;;;;;;;22.20;8.50;;;;;;;32.05;38.96;100671.44;108238;1285;21999;-78
2023/08/19 12:28:43;;;;;;;24.30;8.30;;;;;;;32.10;39.12;100673.56;108500;1288;23656;-79
2023/08/19 12:32:16;;;;;;;16.30;7.60;;;;;;;32.14;39.15;100673.30;107994;1293;22005;-78
2023/08/19 12:35:39;;;;;;;15.10;7.70;;;;;;;32.14;39.11;100666.83;107947;1293;22048;-78
2023/08/19 12:39:47;;;;;;;9.60;7.40;;;;;;;32.08;38.78;100666.80;107993;1293;22146;-79
2023/08/19 12:42:59;;;;;;;;;;;;;;;;;;;;;
2023/08/19 12:45:55;;;;;;;19.80;8.30;;;;;;;32.01;38.74;100655.66;106965;1302;23125;-79
2023/08/19 12:49:10;;;;;;;;;;;;;;;;;;;;;
2023/08/19 12:52:22;;;;;;;9.00;6.40;;;;;;;31.99;38.49;100660.70;106995;1302;21817;-80
2023/08/19 12:55:18;;;;;;;14.50;7.60;;;;;;;31.95;38.60;100656.55;107050;1301;22022;-80
2023/08/19 12:58:09;;;;;;;11.00;7.30;;;;;;;31.93;38.58;100655.82;107368;1300;22040;-79
2023/08/19 13:00:59;;;;;;;9.80;6.60;;;;;;;31.91;38.35;100652.77;107038;1298;22420;-81
2023/08/19 13:03:49;;;;;;;7.00;6.30;;;;;;;31.78;38.20;100645.07;107545;1292;22021;-79
2023/08/19 13:06:33;;;;;;;7.90;6.70;;;;;;;31.71;38.26;100640.21;108405;1286;22010;-78
2023/08/19 13:09:05;;;;;;;15.00;7.00;;;;;;;31.73;38.47;100648.79;108515;1286;22072;-79
2023/08/19 13:11:41;;;;;;;12.10;7.90;;;;;;;31.74;38.51;100646.59;108591;1286;22046;-79
2023/08/19 13:14:40;;;;;;;87.90;15.70;;;;;;;31.73;38.66;100648.79;108517;1286;23072;-79
2023/08/19 13:17:28;;;;;;;14.50;7.70;;;;;;;31.74;39.00;100646.34;108565;1286;23058;-78
2023/08/19 13:20:02;;;;;;;284.40;38.40;;;;;;;31.71;38.79;100644.16;108940;1280;22006;-79
2023/08/19 13:22:35;;;;;;;15.70;7.90;;;;;;;31.66;38.91;100644.27;108883;1280;23088;-79
2023/08/19 13:25:11;;;;;;;54.50;11.60;;;;;;;31.62;38.77;100643.76;108853;1280;23138;-79
2023/08/19 13:27:47;;;;;;;38.00;11.00;;;;;;;31.61;38.62;100645.29;109015;1280;23005;-78
2023/08/19 13:30:48;;;;;;;624.30;92.00;;;;;;;31.60;38.60;100647.17;109058;1280;23055;-79
2023/08/19 13:33:27;;;;;;;22.80;9.50;;;;;;;31.58;38.41;100646.02;108867;1280;22067;-80
2023/08/19 13:36:04;;;;;;;247.60;30.30;;;;;;;31.52;38.30;100645.80;109002;1280;23806;-79
2023/08/19 13:38:38;;;;;;;1357.50;199.90;;;;;;;31.49;38.51;100640.64;109035;1280;23188;-79
2023/08/19 13:41:17;;;;;;;193.40;30.30;;;;;;;31.48;38.79;100642.95;108748;1280;23618;-80
2023/08/19 13:43:55;;;;;;;55.30;12.50;;;;;;;31.50;39.11;100644.95;108709;1280;22190;-80
2023/08/19 13:46:57;;;;;;;499.50;73.00;;;;;;;31.49;39.01;100645.64;109094;1280;21989;-79
2023/08/19 13:49:31;;;;;;;389.80;53.70;;;;;;;31.48;39.06;100640.51;108395;1285;22451;-79
2023/08/19 13:52:30;;;;;;;29.20;10.60;;;;;;;31.48;39.01;100639.80;108717;1284;22047;-78
2023/08/19 13:55:28;;;;;;;119.20;18.90;;;;;;;31.53;39.34;100636.05;108562;1285;22046;-80
2023/08/19 13:58:34;;;;;;;50.60;9.80;;;;;;;31.58;39.13;100632.71;108562;1284;21995;-78
2023/08/19 14:01:19;;;;;;;102.50;13.50;;;;;;;31.61;39.39;100633.70;108587;1283;23376;-78
2023/08/19 14:03:58;;;;;;;9.70;7.30;;;;;;;31.63;39.30;100629.93;108671;1283;23057;-79
2023/08/19 14:06:45;;;;;;;;;;;;;;;;;;;;;
2023/08/19 14:09:51;;;;;;;53.00;12.60;;;;;;;31.65;38.87;100629.30;109072;1279;22414;-79
2023/08/19 14:12:46;;;;;;;59.00;10.10;;;;;;;31.58;38.67;100620.67;108957;1279;22003;-78
2023/08/19 14:15:42;;;;;;;12.30;7.30;;;;;;;31.59;38.94;100620.11;108830;1283;22293;-80
2023/08/19 14:18:36;;;;;;;9.70;8.10;;;;;;;31.62;39.11;100619.97;108729;1285;22008;-79
2023/08/19 14:21:32;;;;;;;;;;;;;;;31.62;39.11;100615.86;108903;1285;23072;-79
2023/08/19 14:24:24;;;;;;;10.30;6.80;;;;;;;31.52;39.32;100608.73;108723;1285;22584;-79
2023/08/19 14:27:21;;;;;;;9.50;6.60;;;;;;;31.54;39.14;100602.23;109005;1285;22009;-80
2023/08/19 14:30:15;;;;;;;14.30;7.80;;;;;;;31.51;39.06;100594.36;108650;1287;22018;-78
2023/08/19 14:33:01;;;;;;;19.40;8.10;;;;;;;31.60;39.14;100603.34;108631;1286;23636;-77
2023/08/19 14:35:35;;;;;;;22.40;8.20;;;;;;;31.59;39.17;100601.27;108632;1289;22502;-79
2023/08/19 14:39:10;;;;;;;40.90;8.50;;;;;;;31.56;38.82;100596.82;108209;1289;22689;-82
2023/08/19 14:41:49;;;;;;;57.90;11.50;;;;;;;31.53;39.01;100597.91;108634;1285;22012;-84
2023/08/19 14:44:53;;;;;;;78.30;13.60;;;;;;;31.39;39.10;100584.40;108373;1291;23894;-83
2023/08/19 14:47:46;;;;;;;10.10;8.30;;;;;;;31.41;39.21;100589.81;108342;1289;22025;-84
2023/08/19 14:51:35;;;;;;;;;;;;;;;;;;;;;
2023/08/19 14:54:50;;;;;;;;;;;;;;;;;;;;;
2023/08/19 14:57:40;;;;;;;15.20;8.20;;;;;;;31.20;39.93;100590.91;108328;1293;21999;-83
2023/08/19 15:04:00;;;;;;;;;;;;;;;31.18;39.84;100591.75;107926;1295;23685;-83
2023/08/19 15:07:56;;;;;;;;;;;;;;;;;;;;;
2023/08/19 15:11:17;;;;;;;19.60;8.60;;;;;;;31.09;39.87;100597.40;107209;1302;24205;-81
2023/08/19 15:15:17;;;;;;;;;;;;;;;;;;;;;
2023/08/19 15:17:49;;;;;;;;;;;;;;;30.99;40.28;100602.48;106543;1309;22140;-81
2023/08/19 15:20:48;;;;;;;6.40;5.70;;;;;;;30.98;40.22;100603.77;106397;1309;22228;-82
2023/08/19 15:23:41;;;;;;;10.30;7.30;;;;;;;30.97;40.27;100604.46;106304;1306;22513;-81
2023/08/19 15:26:25;;;;;;;;;;;;;;;30.94;40.53;100602.42;106378;1307;22062;-81
2023/08/19 15:29:20;;;;;;;8.90;7.60;;;;;;;30.89;40.64;100603.99;106351;1306;22019;-80
2023/08/19 15:32:05;;;;;;;9.50;8.50;;;;;;;30.83;40.83;100610.11;106363;1307;22042;-82
2023/08/19 15:34:48;;;;;;;12.40;7.50;;;;;;;30.79;41.17;100608.27;106393;1306;22026;-82
2023/08/19 15:37:45;;;;;;;20.30;8.20;;;;;;;30.75;41.18;100610.16;106578;1304;22091;-82
2023/08/19 15:40:35;;;;;;;12.90;8.70;;;;;;;30.73;41.33;100608.14;106864;1304;22787;-84
2023/08/19 15:43:16;;;;;;;12.40;8.10;;;;;;;30.76;41.04;100608.95;106758;1304;23889;-83
2023/08/19 15:46:41;;;;;;;;;;;;;;;;;;;;;
2023/08/19 15:49:41;;;;;;;9.50;7.50;;;;;;;30.68;41.09;100601.60;107759;1297;23650;-81